Time;durP1;ratioP1;P1;durP2;ratioP2;P2;SDS_P1;SDS_P2;PMS_P1;PMS_P2;Temp;Humidity;BMP_temperature;BMP_pressure;BME280_temperature;BME280_humidity;BME280_pressure;Samples;Min_cycle;Max_cycle;Signal;HPM_P1;HPM_P2
2023/04/23 00:01:47;;;;;;;36.83;26.80;;;12.70;99.90;;;;;;5023122;28;20444;-77
2023/04/23 00:04:15;;;;;;;35.90;26.60;;;12.70;99.90;;;;;;5015285;28;20421;-76
2023/04/23 00:06:42;;;;;;;38.47;26.33;;;12.60;99.90;;;;;;5022369;28;20465;-77
2023/04/23 00:09:08;;;;;;;35.93;28.00;;;12.60;99.90;;;;;;5015673;28;20828;-78
2023/04/23 00:11:34;;;;;;;38.63;29.27;;;12.60;99.90;;;;;;5013169;28;20430;-78
2023/04/23 00:14:00;;;;;;;37.13;27.80;;;12.60;99.90;;;;;;5012455;28;20760;-77
2023/04/23 00:16:26;;;;;;;37.87;27.10;;;12.60;99.90;;;;;;5012601;28;20187;-77
2023/04/23 00:18:51;;;;;;;36.53;28.23;;;12.60;99.90;;;;;;5012258;28;20903;-77
2023/04/23 00:21:17;;;;;;;38.23;27.63;;;12.50;99.90;;;;;;5012165;28;20565;-77
2023/04/23 00:23:43;;;;;;;37.00;28.03;;;12.50;99.90;;;;;;5011362;28;20253;-77
2023/04/23 00:26:08;;;;;;;36.50;28.37;;;12.50;99.90;;;;;;5012810;28;20294;-77
2023/04/23 00:28:34;;;;;;;36.60;27.90;;;12.50;99.90;;;;;;5012847;28;20175;-77
2023/04/23 00:31:00;;;;;;;39.57;28.63;;;12.50;99.90;;;;;;5011105;28;20276;-77
2023/04/23 00:33:25;;;;;;;38.47;27.90;;;12.50;99.90;;;;;;5010540;28;20229;-77
2023/04/23 00:35:51;;;;;;;36.50;27.50;;;12.40;99.90;;;;;;5010486;28;20266;-76
2023/04/23 00:38:17;;;;;;;35.10;27.17;;;12.40;99.90;;;;;;5011873;28;20201;-77
2023/04/23 00:40:42;;;;;;;38.00;28.47;;;12.40;99.90;;;;;;5011811;28;20198;-77
2023/04/23 00:43:08;;;;;;;33.23;26.63;;;12.40;99.90;;;;;;5011693;28;20183;-77
2023/04/23 00:45:34;;;;;;;31.10;24.50;;;12.40;99.90;;;;;;5011561;28;20199;-77
2023/04/23 00:48:01;;;;;;;30.90;24.07;;;12.40;99.90;;;;;;5011871;28;20424;-77
2023/04/23 00:50:26;;;;;;;33.90;25.37;;;12.40;99.90;;;;;;5011458;28;20191;-77
2023/04/23 00:52:52;;;;;;;30.20;23.73;;;12.40;99.90;;;;;;5010316;28;20564;-77
2023/04/23 00:55:19;;;;;;;32.80;23.73;;;12.40;99.90;;;;;;5011555;28;20249;-77
2023/04/23 00:57:45;;;;;;;29.47;23.20;;;12.30;99.90;;;;;;5026806;28;20186;-77
2023/04/23 01:00:12;;;;;;;31.00;23.60;;;12.30;99.90;;;;;;5010493;28;20414;-77
2023/04/23 01:02:41;;;;;;;29.10;22.13;;;12.30;99.90;;;;;;5011662;28;20178;-77
2023/04/23 01:05:08;;;;;;;28.60;23.07;;;12.30;99.90;;;;;;5011326;28;20772;-77
2023/04/23 01:07:35;;;;;;;30.00;24.90;;;12.30;99.90;;;;;;5026754;28;20414;-78
2023/04/23 01:10:02;;;;;;;27.33;21.80;;;12.30;99.90;;;;;;5010999;28;20662;-77
2023/04/23 01:12:27;;;;;;;27.43;22.20;;;12.30;99.90;;;;;;5011675;28;20445;-77
2023/04/23 01:14:54;;;;;;;25.50;21.47;;;12.30;99.90;;;;;;5011225;28;20915;-77
2023/04/23 01:17:20;;;;;;;28.13;21.83;;;12.30;99.90;;;;;;5011500;28;20664;-77
2023/04/23 01:19:46;;;;;;;28.23;21.77;;;12.30;99.90;;;;;;5011303;28;20912;-77
2023/04/23 01:22:13;;;;;;;25.67;21.73;;;12.20;99.90;;;;;;5000554;28;20453;-77
2023/04/23 01:24:41;;;;;;;28.10;21.87;;;12.30;99.90;;;;;;5006660;28;20203;-77
2023/04/23 01:27:10;;;;;;;26.70;22.13;;;12.20;99.90;;;;;;4991537;28;20554;-77
2023/04/23 01:29:38;;;;;;;27.97;22.20;;;12.20;99.90;;;;;;4991770;28;20526;-77
2023/04/23 01:32:04;;;;;;;26.60;21.53;;;12.20;99.90;;;;;;4991985;28;20862;-77
2023/04/23 01:34:31;;;;;;;27.90;21.50;;;12.30;99.90;;;;;;4992259;28;20446;-77
2023/04/23 01:36:58;;;;;;;26.47;21.87;;;12.20;99.90;;;;;;4991879;28;20427;-77
2023/04/23 01:39:24;;;;;;;28.20;22.00;;;12.20;99.90;;;;;;5007893;28;20446;-77
2023/04/23 01:41:50;;;;;;;26.87;21.17;;;12.20;99.90;;;;;;5006719;28;20849;-77
2023/04/23 01:44:16;;;;;;;23.97;20.70;;;12.20;99.90;;;;;;5012487;28;20479;-77
2023/04/23 01:46:41;;;;;;;27.87;22.30;;;12.20;99.90;;;;;;5012712;28;20945;-77
2023/04/23 01:49:07;;;;;;;27.93;21.93;;;12.20;99.90;;;;;;5027588;28;20187;-77
2023/04/23 01:51:34;;;;;;;27.37;21.30;;;12.20;99.90;;;;;;5011412;28;20199;-77
2023/04/23 01:54:00;;;;;;;26.70;21.27;;;12.10;99.90;;;;;;5020463;28;20758;-77
2023/04/23 01:56:27;;;;;;;26.80;21.93;;;12.10;99.90;;;;;;5031062;28;20417;-77
2023/04/23 01:58:53;;;;;;;26.93;22.50;;;12.10;99.90;;;;;;5029905;28;20689;-77
2023/04/23 02:01:19;;;;;;;26.67;21.90;;;12.10;99.90;;;;;;5028701;28;20511;-77
2023/04/23 02:03:45;;;;;;;25.40;20.80;;;12.10;99.90;;;;;;5028561;28;20417;-77
2023/04/23 02:06:11;;;;;;;27.33;22.23;;;12.10;99.90;;;;;;5028934;28;20480;-77
2023/04/23 02:08:38;;;;;;;28.47;21.00;;;12.10;99.90;;;;;;5030256;28;20413;-76
2023/04/23 02:11:05;;;;;;;27.03;21.57;;;12.10;99.90;;;;;;5029458;28;20429;-77
2023/04/23 02:13:31;;;;;;;24.90;21.10;;;12.10;99.90;;;;;;5030629;28;20409;-77
2023/04/23 02:15:57;;;;;;;23.40;19.90;;;12.10;99.90;;;;;;5030373;28;20413;-77
2023/04/23 02:18:22;;;;;;;27.83;21.70;;;12.10;99.90;;;;;;5027154;28;20741;-78
2023/04/23 02:20:48;;;;;;;23.87;21.10;;;12.00;99.90;;;;;;5017794;28;20191;-77
2023/04/23 02:23:14;;;;;;;27.43;21.87;;;12.00;99.90;;;;;;5009047;28;20214;-77
2023/04/23 02:25:41;;;;;;;25.93;21.80;;;12.00;99.90;;;;;;5009861;28;20218;-77
2023/04/23 02:28:07;;;;;;;27.40;22.60;;;12.00;99.90;;;;;;5009848;28;20195;-77
2023/04/23 02:30:34;;;;;;;24.67;20.67;;;11.90;99.90;;;;;;5010050;28;20449;-77
2023/04/23 02:32:59;;;;;;;27.60;20.83;;;11.90;99.90;;;;;;5008364;28;20957;-76
2023/04/23 02:35:25;;;;;;;24.70;20.90;;;11.90;99.90;;;;;;5009887;28;20507;-77
2023/04/23 02:37:53;;;;;;;25.40;21.53;;;11.90;99.90;;;;;;5009622;28;20610;-77
2023/04/23 02:40:19;;;;;;;27.00;23.10;;;11.80;99.90;;;;;;5009503;28;20456;-77
2023/04/23 02:42:44;;;;;;;25.93;21.00;;;11.90;99.90;;;;;;5008526;28;20446;-77
2023/04/23 02:45:10;;;;;;;26.27;21.47;;;11.80;99.90;;;;;;5010003;28;20497;-77
2023/04/23 02:47:36;;;;;;;25.70;20.97;;;11.70;99.90;;;;;;5008567;28;20266;-77
2023/04/23 02:50:05;;;;;;;28.67;23.20;;;11.70;99.90;;;;;;5009715;28;20175;-77
2023/04/23 02:52:31;;;;;;;25.77;21.07;;;11.70;99.90;;;;;;5009174;28;20413;-78
2023/04/23 02:54:57;;;;;;;25.83;20.33;;;11.60;99.90;;;;;;5011055;28;20416;-77
2023/04/23 02:57:23;;;;;;;29.37;21.63;;;11.70;99.90;;;;;;5010375;28;21006;-75
2023/04/23 02:59:49;;;;;;;26.43;21.10;;;11.60;99.90;;;;;;5011339;28;20425;-76
2023/04/23 03:02:15;;;;;;;24.73;19.70;;;11.60;99.90;;;;;;5009318;28;20282;-77
2023/04/23 03:04:41;;;;;;;25.30;20.50;;;11.60;99.90;;;;;;5007917;28;20431;-77
2023/04/23 03:07:06;;;;;;;26.80;20.87;;;11.60;99.90;;;;;;5009133;28;20203;-77
2023/04/23 03:09:32;;;;;;;27.50;21.87;;;11.60;99.90;;;;;;5009288;28;20309;-77
2023/04/23 03:11:58;;;;;;;24.77;21.33;;;11.60;99.90;;;;;;5016699;28;20199;-77
2023/04/23 03:14:23;;;;;;;26.17;20.60;;;11.60;99.90;;;;;;5021191;28;20178;-77
2023/04/23 03:16:49;;;;;;;25.10;20.87;;;11.50;99.90;;;;;;5028423;28;20174;-78
2023/04/23 03:19:15;;;;;;;26.60;19.30;;;11.60;99.90;;;;;;5029062;28;20173;-77
2023/04/23 03:21:41;;;;;;;23.70;19.77;;;11.50;99.90;;;;;;5019558;28;20269;-77
2023/04/23 03:24:06;;;;;;;25.70;21.27;;;11.50;99.90;;;;;;4998932;28;20186;-76
2023/04/23 03:26:33;;;;;;;23.27;19.67;;;11.50;99.90;;;;;;5012970;28;20199;-76
2023/04/23 03:28:59;;;;;;;26.87;19.57;;;11.50;99.90;;;;;;5012855;28;20213;-77
2023/04/23 03:31:25;;;;;;;27.43;21.37;;;11.40;99.90;;;;;;5012641;28;20457;-75
2023/04/23 03:33:50;;;;;;;25.93;20.70;;;11.40;99.90;;;;;;5011836;28;20445;-76
2023/04/23 03:36:17;;;;;;;29.93;20.63;;;11.40;99.90;;;;;;5022388;28;20278;-77
2023/04/23 03:38:42;;;;;;;27.33;22.13;;;11.40;99.90;;;;;;5045093;28;20222;-75
2023/04/23 03:41:08;;;;;;;28.63;23.00;;;11.30;99.90;;;;;;5020952;28;20980;-77
2023/04/23 03:43:34;;;;;;;26.00;20.83;;;11.30;99.90;;;;;;5013501;28;20179;-77
2023/04/23 03:45:59;;;;;;;25.17;20.57;;;11.30;99.90;;;;;;5013208;28;20238;-76
2023/04/23 03:48:25;;;;;;;28.47;21.10;;;11.30;99.90;;;;;;5012838;28;20227;-77
2023/04/23 03:50:51;;;;;;;23.80;20.27;;;11.30;99.90;;;;;;5012508;28;20715;-77
2023/04/23 03:53:17;;;;;;;26.87;21.67;;;11.30;99.90;;;;;;5012411;28;20528;-77
2023/04/23 03:55:43;;;;;;;23.20;19.10;;;11.30;99.90;;;;;;5015060;28;20570;-77
2023/04/23 03:58:09;;;;;;;25.97;19.80;;;11.30;99.90;;;;;;5020779;28;20190;-77
2023/04/23 04:00:35;;;;;;;26.17;21.80;;;11.20;99.90;;;;;;5014101;28;20438;-77
2023/04/23 04:03:01;;;;;;;26.87;20.63;;;11.20;99.90;;;;;;5012392;28;20497;-76
2023/04/23 04:05:27;;;;;;;25.17;20.13;;;11.20;99.90;;;;;;5012045;28;20511;-77
2023/04/23 04:07:53;;;;;;;25.13;20.67;;;11.20;99.90;;;;;;5011991;28;20269;-77
2023/04/23 04:10:19;;;;;;;25.93;20.87;;;11.20;99.90;;;;;;5011859;28;20449;-76
2023/04/23 04:12:46;;;;;;;21.87;19.20;;;11.20;99.90;;;;;;5011832;28;20508;-77
2023/04/23 04:15:16;;;;;;;23.20;19.67;;;11.20;99.90;;;;;;5011911;28;20167;-76
2023/04/23 04:17:44;;;;;;;23.10;18.77;;;11.20;99.90;;;;;;5011696;28;20413;-77
2023/04/23 04:20:10;;;;;;;27.90;20.20;;;11.20;99.90;;;;;;5011709;28;20414;-76
2023/04/23 04:22:36;;;;;;;24.93;20.20;;;11.20;99.90;;;;;;5017315;28;20911;-76
2023/04/23 04:25:02;;;;;;;25.50;20.23;;;11.20;99.90;;;;;;5017746;28;20417;-76
2023/04/23 04:27:28;;;;;;;26.00;19.23;;;11.20;99.90;;;;;;5010004;28;20182;-78
2023/04/23 04:29:53;;;;;;;23.00;19.97;;;11.30;99.90;;;;;;5011493;28;20413;-77
2023/04/23 04:32:21;;;;;;;23.70;20.10;;;11.30;99.90;;;;;;5011769;28;20199;-76
2023/04/23 04:34:46;;;;;;;24.43;20.23;;;11.20;99.90;;;;;;5009131;28;20175;-76
2023/04/23 04:37:12;;;;;;;25.10;20.80;;;11.30;99.90;;;;;;5010008;28;20501;-75
2023/04/23 04:39:37;;;;;;;24.97;19.63;;;11.20;99.90;;;;;;5017388;28;20211;-77
2023/04/23 04:42:05;;;;;;;27.20;22.40;;;11.20;99.90;;;;;;5030600;28;20207;-77
2023/04/23 04:44:31;;;;;;;23.47;19.00;;;11.30;99.90;;;;;;4991594;28;20180;-76
2023/04/23 04:46:56;;;;;;;24.03;20.20;;;11.30;99.90;;;;;;4991616;28;20517;-76
2023/04/23 04:49:22;;;;;;;23.17;20.20;;;11.30;99.90;;;;;;4990580;28;20175;-76
2023/04/23 04:51:48;;;;;;;23.50;19.33;;;11.30;99.90;;;;;;4974214;28;20206;-77
2023/04/23 04:54:14;;;;;;;24.07;18.83;;;11.30;99.90;;;;;;4990208;28;20407;-76
2023/04/23 04:56:40;;;;;;;23.10;20.20;;;11.20;99.90;;;;;;4990596;28;20183;-76
2023/04/23 04:59:05;;;;;;;21.97;18.20;;;11.30;99.90;;;;;;4991577;28;20263;-77
2023/04/23 05:01:32;;;;;;;23.73;19.17;;;11.20;99.90;;;;;;4991703;28;20196;-76
2023/04/23 05:03:58;;;;;;;22.60;19.00;;;11.20;99.90;;;;;;4973921;28;20184;-76
2023/04/23 05:06:24;;;;;;;23.70;17.77;;;11.20;99.90;;;;;;4991746;28;20478;-76
2023/04/23 05:08:50;;;;;;;20.40;17.90;;;11.20;99.90;;;;;;4990131;28;20920;-77
2023/04/23 05:11:17;;;;;;;22.07;17.70;;;11.30;99.90;;;;;;4991679;28;20230;-77
2023/04/23 05:13:44;;;;;;;20.57;18.23;;;11.30;99.90;;;;;;4991549;28;20185;-77
2023/04/23 05:16:10;;;;;;;20.27;16.90;;;11.30;99.90;;;;;;4991952;28;20915;-77
2023/04/23 05:18:37;;;;;;;19.03;17.00;;;11.30;99.90;;;;;;4991551;28;20940;-76
2023/04/23 05:21:03;;;;;;;17.50;15.70;;;11.30;99.90;;;;;;4991600;28;20438;-77
2023/04/23 05:23:29;;;;;;;19.50;17.37;;;11.30;99.90;;;;;;5010608;28;20785;-77
2023/04/23 05:25:55;;;;;;;19.83;17.20;;;11.30;99.90;;;;;;5018176;28;20508;-77
2023/04/23 05:28:21;;;;;;;19.30;17.07;;;11.40;99.90;;;;;;5014378;28;20187;-77
2023/04/23 05:30:48;;;;;;;19.90;17.27;;;11.40;99.90;;;;;;5016502;28;20441;-78
2023/04/23 05:33:14;;;;;;;23.40;17.27;;;11.50;99.90;;;;;;5012745;28;20735;-77
2023/04/23 05:35:40;;;;;;;20.50;16.90;;;11.50;99.90;;;;;;5009198;28;20430;-77
2023/04/23 05:38:06;;;;;;;23.77;17.70;;;11.60;99.90;;;;;;5018265;28;21016;-75
2023/04/23 05:40:32;;;;;;;20.97;16.57;;;11.60;99.90;;;;;;5016432;28;20206;-77
2023/04/23 05:42:58;;;;;;;18.80;16.80;;;11.70;99.90;;;;;;5006017;28;20187;-77
2023/04/23 05:45:24;;;;;;;19.37;16.70;;;11.80;99.90;;;;;;4998318;28;20222;-78
2023/04/23 05:47:50;;;;;;;19.83;15.77;;;11.90;99.90;;;;;;4990348;28;20419;-78
2023/04/23 05:50:16;;;;;;;21.80;16.97;;;12.00;99.90;;;;;;4990439;28;20411;-77
2023/04/23 05:52:42;;;;;;;17.20;15.40;;;12.20;99.90;;;;;;4990532;28;20407;-77
2023/04/23 05:55:08;;;;;;;18.90;16.97;;;12.30;99.90;;;;;;4990386;28;20991;-77
2023/04/23 05:57:35;;;;;;;17.37;14.33;;;12.50;99.90;;;;;;4990289;28;20607;-77
2023/04/23 06:00:01;;;;;;;17.10;14.83;;;12.60;99.90;;;;;;4990221;28;20434;-77
2023/04/23 06:02:28;;;;;;;17.47;15.57;;;12.60;99.90;;;;;;4990456;28;20803;-76
2023/04/23 06:04:53;;;;;;;16.23;14.53;;;12.70;99.90;;;;;;4989017;28;20477;-77
2023/04/23 06:07:19;;;;;;;16.87;14.70;;;12.70;99.90;;;;;;4990087;28;20853;-76
2023/04/23 06:09:45;;;;;;;16.03;14.33;;;12.70;99.90;;;;;;4990238;28;20250;-77
2023/04/23 06:12:10;;;;;;;16.50;14.13;;;12.70;99.90;;;;;;4989205;28;20680;-77
2023/04/23 06:14:36;;;;;;;14.70;12.80;;;12.60;99.90;;;;;;5003899;28;20187;-76
2023/04/23 06:17:02;;;;;;;14.40;12.40;;;12.70;99.90;;;;;;4992014;28;20598;-77
2023/04/23 06:19:27;;;;;;;15.10;13.50;;;12.70;99.90;;;;;;5016294;28;20178;-77
2023/04/23 06:21:53;;;;;;;13.67;12.27;;;12.70;99.90;;;;;;5023039;28;20558;-76
2023/04/23 06:24:19;;;;;;;14.63;13.00;;;12.70;99.90;;;;;;4988820;28;20179;-76
2023/04/23 06:26:45;;;;;;;14.80;12.73;;;12.70;99.90;;;;;;4989036;28;20466;-76
2023/04/23 06:29:10;;;;;;;14.20;12.80;;;12.70;99.90;;;;;;4989235;28;20641;-76
2023/04/23 06:31:36;;;;;;;14.47;13.00;;;12.70;99.90;;;;;;5004110;28;20195;-78
2023/04/23 06:34:02;;;;;;;12.90;11.53;;;12.70;99.90;;;;;;5024592;28;20540;-77
2023/04/23 06:36:28;;;;;;;14.40;12.33;;;12.70;99.90;;;;;;5019959;28;20202;-76
2023/04/23 06:38:53;;;;;;;14.07;12.67;;;12.80;99.90;;;;;;5028868;28;20527;-77
2023/04/23 06:41:20;;;;;;;13.07;11.77;;;12.80;99.90;;;;;;5017744;28;20256;-78
2023/04/23 06:43:47;;;;;;;12.00;10.80;;;12.90;99.90;;;;;;5002621;28;20460;-76
2023/04/23 06:46:13;;;;;;;13.93;11.70;;;12.90;99.90;;;;;;5003917;28;20486;-76
2023/04/23 06:48:39;;;;;;;12.40;11.20;;;12.90;99.90;;;;;;5014379;28;20966;-77
2023/04/23 06:51:05;;;;;;;14.67;12.20;;;13.00;99.90;;;;;;5007223;28;20488;-77
2023/04/23 06:53:31;;;;;;;12.10;10.90;;;13.00;99.90;;;;;;5011606;28;20209;-77
2023/04/23 06:55:56;;;;;;;12.77;11.47;;;13.00;99.90;;;;;;5010563;28;20548;-77
2023/04/23 06:58:26;;;;;;;13.10;11.00;;;13.10;99.90;;;;;;5008149;28;20453;-78
2023/04/23 07:00:52;;;;;;;12.27;10.93;;;13.10;99.90;;;;;;5018572;28;20218;-77
2023/04/23 07:03:18;;;;;;;11.87;10.67;;;13.10;99.90;;;;;;5002190;28;20505;-76
2023/04/23 07:05:44;;;;;;;12.33;11.13;;;13.10;99.90;;;;;;5008574;28;21010;-77
2023/04/23 07:08:09;;;;;;;11.87;9.97;;;13.20;99.90;;;;;;5015067;28;20451;-77
2023/04/23 07:10:35;;;;;;;11.23;10.13;;;13.30;99.90;;;;;;4999524;28;20705;-76
2023/04/23 07:13:01;;;;;;;11.47;10.30;;;13.30;99.90;;;;;;5019461;28;20205;-77
2023/04/23 07:15:27;;;;;;;11.03;9.57;;;13.40;99.90;;;;;;5037190;28;20811;-76
2023/04/23 07:17:52;;;;;;;9.93;9.00;;;13.30;99.90;;;;;;5021376;28;20202;-76
2023/04/23 07:20:18;;;;;;;10.60;9.50;;;13.40;99.90;;;;;;5024074;28;20629;-78
2023/04/23 07:22:46;;;;;;;10.37;9.13;;;13.40;99.90;;;;;;5004155;28;20309;-77
2023/04/23 07:25:11;;;;;;;9.90;9.00;;;13.50;99.90;;;;;;5016191;28;20686;-77
2023/04/23 07:27:37;;;;;;;10.37;9.37;;;13.60;99.90;;;;;;5015166;28;20446;-77
2023/04/23 07:30:04;;;;;;;8.90;8.10;;;13.60;99.90;;;;;;5020409;28;20293;-77
2023/04/23 07:32:30;;;;;;;9.07;8.00;;;13.60;99.90;;;;;;5010262;28;20218;-78
2023/04/23 07:34:56;;;;;;;9.27;8.37;;;13.60;99.90;;;;;;5018353;28;20792;-77
2023/04/23 07:37:22;;;;;;;8.07;7.27;;;13.70;99.90;;;;;;5012026;28;20851;-77
2023/04/23 07:39:47;;;;;;;9.23;8.30;;;13.80;99.90;;;;;;5013697;28;20433;-77
2023/04/23 07:42:13;;;;;;;8.90;8.10;;;13.90;99.90;;;;;;5010685;28;20448;-76
2023/04/23 07:44:39;;;;;;;9.83;7.80;;;14.00;99.90;;;;;;5007577;28;20211;-76
2023/04/23 07:47:05;;;;;;;8.67;7.87;;;14.00;99.90;;;;;;5008067;28;20231;-76
2023/04/23 07:49:31;;;;;;;8.23;7.30;;;14.10;99.90;;;;;;5005100;28;20442;-76
2023/04/23 07:51:59;;;;;;;8.30;7.50;;;14.10;99.90;;;;;;5027321;28;20213;-77
2023/04/23 07:54:25;;;;;;;8.93;7.07;;;14.20;99.90;;;;;;4999147;28;20194;-77
2023/04/23 07:56:51;;;;;;;11.10;7.53;;;14.30;99.90;;;;;;5007059;28;20456;-77
2023/04/23 07:59:17;;;;;;;10.10;6.87;;;14.20;99.90;;;;;;5007143;28;20468;-77
2023/04/23 08:01:42;;;;;;;7.97;7.17;;;14.30;99.90;;;;;;5009939;28;20210;-78
2023/04/23 08:04:08;;;;;;;8.37;6.90;;;14.30;99.90;;;;;;5014241;28;20433;-76
2023/04/23 08:06:34;;;;;;;7.47;6.70;;;14.30;99.90;;;;;;5011527;28;20338;-78
2023/04/23 08:09:05;;;;;;;9.17;6.90;;;14.40;99.90;;;;;;5025577;28;20203;-78
2023/04/23 08:11:31;;;;;;;7.03;6.10;;;14.40;99.90;;;;;;5015632;28;20468;-78
2023/04/23 08:13:57;;;;;;;7.80;6.67;;;14.50;99.90;;;;;;5018913;28;20434;-78
2023/04/23 08:16:22;;;;;;;8.07;6.43;;;14.50;99.90;;;;;;5020753;28;20453;-78
2023/04/23 08:18:48;;;;;;;7.90;6.50;;;14.60;99.90;;;;;;5013950;28;20198;-78
2023/04/23 08:21:14;;;;;;;7.07;6.40;;;14.60;99.90;;;;;;5016769;28;20754;-78
2023/04/23 08:23:39;;;;;;;8.37;6.73;;;14.60;99.90;;;;;;5014404;28;20207;-79
2023/04/23 08:26:06;;;;;;;5.23;4.83;;;14.70;99.90;;;;;;5017490;28;20254;-76
2023/04/23 08:28:31;;;;;;;5.60;5.10;;;14.70;99.90;;;;;;5012155;28;20227;-78
2023/04/23 08:30:57;;;;;;;6.80;5.90;;;14.70;99.90;;;;;;5001744;28;20516;-77
2023/04/23 08:33:23;;;;;;;5.60;5.10;;;14.80;99.90;;;;;;5015888;28;20203;-78
2023/04/23 08:35:48;;;;;;;6.50;5.90;;;14.80;99.90;;;;;;5014705;28;20235;-78
2023/04/23 08:38:14;;;;;;;6.70;6.13;;;14.80;99.90;;;;;;5013769;28;20599;-76
2023/04/23 08:40:41;;;;;;;8.80;5.70;;;14.90;99.90;;;;;;5030024;28;20295;-77
2023/04/23 08:43:15;;;;;;;8.37;5.43;;;14.90;99.90;;;;;;5017787;28;20203;-77
2023/04/23 08:45:45;;;;;;;5.30;4.80;;;15.00;99.90;;;;;;5014551;28;20560;-78
2023/04/23 08:48:11;;;;;;;11.80;5.63;;;15.00;99.90;;;;;;5021055;28;20442;-78
2023/04/23 08:50:41;;;;;;;5.67;5.10;;;15.10;99.90;;;;;;5013113;28;20438;-77
2023/04/23 08:53:07;;;;;;;4.60;4.20;;;15.10;99.90;;;;;;5011627;28;20477;-77
2023/04/23 08:55:34;;;;;;;7.60;4.40;;;15.20;99.90;;;;;;5010291;28;20433;-78
2023/04/23 08:58:02;;;;;;;4.23;3.83;;;15.30;99.90;;;;;;5011629;28;20430;-76
2023/04/23 09:00:28;;;;;;;8.17;3.77;;;15.30;99.90;;;;;;4997803;28;20529;-78
2023/04/23 09:02:55;;;;;;;8.23;4.83;;;15.50;99.90;;;;;;5012338;28;20433;-77
2023/04/23 09:05:21;;;;;;;11.10;4.37;;;15.50;99.90;;;;;;5024396;28;20492;-78
2023/04/23 09:07:47;;;;;;;4.83;4.30;;;15.60;99.90;;;;;;5024179;28;21039;-78
2023/04/23 09:10:13;;;;;;;4.50;3.87;;;15.70;99.90;;;;;;5010209;28;20198;-77
2023/04/23 09:12:41;;;;;;;6.43;3.97;;;15.80;99.90;;;;;;5012142;28;20227;-77
2023/04/23 09:15:11;;;;;;;5.10;4.23;;;15.90;99.90;;;;;;5013784;28;20434;-77
2023/04/23 09:17:45;;;;;;;4.43;3.70;;;16.00;99.90;;;;;;5018414;28;20461;-77
2023/04/23 09:20:12;;;;;;;4.00;3.30;;;16.00;99.90;;;;;;5015452;28;20457;-77
2023/04/23 09:22:48;;;;;;;6.80;3.33;;;16.10;99.90;;;;;;5017260;28;20812;-78
2023/04/23 09:25:23;;;;;;;4.50;3.27;;;16.10;99.90;;;;;;5012192;28;20449;-77
2023/04/23 09:27:50;;;;;;;7.97;3.77;;;16.20;99.90;;;;;;5012887;28;20954;-77
2023/04/23 09:30:16;;;;;;;4.00;3.60;;;16.30;99.90;;;;;;5010137;28;20441;-76
2023/04/23 09:32:44;;;;;;;5.10;4.10;;;16.40;99.90;;;;;;5011026;28;20850;-77
2023/04/23 09:35:15;;;;;;;4.67;4.10;;;16.50;99.90;;;;;;5027569;28;20470;-77
2023/04/23 09:37:42;;;;;;;4.77;4.17;;;16.60;99.90;;;;;;5011523;28;20481;-76
2023/04/23 09:40:12;;;;;;;6.07;4.03;;;16.70;99.90;;;;;;5008870;28;20449;-77
2023/04/23 09:42:38;;;;;;;7.20;3.33;;;16.80;99.90;;;;;;5008602;28;20462;-76
2023/04/23 09:45:10;;;;;;;4.27;3.13;;;16.80;99.90;;;;;;5011743;28;20449;-77
2023/04/23 09:47:41;;;;;;;6.13;3.43;;;16.80;99.90;;;;;;5008637;28;20488;-77
2023/04/23 09:50:11;;;;;;;3.83;3.03;;;16.80;99.90;;;;;;5013744;28;20452;-76
2023/04/23 09:52:40;;;;;;;4.60;3.50;;;16.70;99.90;;;;;;5012340;28;20469;-78
2023/04/23 09:55:07;;;;;;;4.00;3.30;;;16.60;99.90;;;;;;5019182;28;20536;-77
2023/04/23 09:57:37;;;;;;;8.43;3.47;;;16.60;99.90;;;;;;5008932;28;20586;-77
2023/04/23 10:00:15;;;;;;;4.83;4.00;;;16.60;99.90;;;;;;5007512;28;20974;-77
2023/04/23 10:02:46;;;;;;;4.67;3.60;;;16.80;99.90;;;;;;5009856;28;20830;-77
2023/04/23 10:05:20;;;;;;;7.63;3.87;;;16.80;99.90;;;;;;5015464;28;20926;-77
2023/04/23 10:07:49;;;;;;;4.20;3.60;;;16.90;99.90;;;;;;5014898;28;20477;-76
2023/04/23 10:10:16;;;;;;;4.93;3.70;;;16.90;99.90;;;;;;5013461;28;20982;-77
2023/04/23 10:12:43;;;;;;;3.93;3.63;;;16.90;99.90;;;;;;5016460;28;20488;-77
2023/04/23 10:15:09;;;;;;;4.87;3.57;;;16.90;99.90;;;;;;5013886;28;20454;-76
2023/04/23 10:17:36;;;;;;;4.60;3.20;;;16.90;99.90;;;;;;5017559;28;20549;-77
2023/04/23 10:20:03;;;;;;;3.27;2.97;;;16.90;99.90;;;;;;5015018;28;20448;-77
2023/04/23 10:22:31;;;;;;;4.27;3.20;;;16.90;99.90;;;;;;5013202;28;20477;-77
2023/04/23 10:25:00;;;;;;;3.70;3.40;;;16.90;99.90;;;;;;5012475;28;20576;-78
2023/04/23 10:27:30;;;;;;;4.67;3.70;;;16.90;99.90;;;;;;4996392;28;20478;-76
2023/04/23 10:29:59;;;;;;;8.17;2.70;;;16.90;99.90;;;;;;5000561;28;20446;-76
2023/04/23 10:32:26;;;;;;;4.30;3.07;;;16.90;99.90;;;;;;5011143;28;20466;-76
2023/04/23 10:34:52;;;;;;;3.40;2.90;;;16.80;99.90;;;;;;5001402;28;20526;-76
2023/04/23 10:37:19;;;;;;;3.70;3.40;;;16.90;99.90;;;;;;5012868;28;20469;-77
2023/04/23 10:39:54;;;;;;;3.83;3.50;;;16.90;99.90;;;;;;5020254;28;20461;-76
2023/04/23 10:42:21;;;;;;;3.77;3.47;;;17.00;99.90;;;;;;5021240;28;20543;-76
2023/04/23 10:44:47;;;;;;;6.10;3.13;;;17.00;99.90;;;;;;5008178;28;20584;-76
2023/04/23 10:47:16;;;;;;;4.97;3.10;;;17.00;99.90;;;;;;5019900;28;21125;-76
2023/04/23 10:49:43;;;;;;;3.50;2.80;;;17.00;99.90;;;;;;5011833;28;20202;-77
2023/04/23 10:52:15;;;;;;;4.03;3.10;;;17.00;99.90;;;;;;5004543;28;20465;-76
2023/04/23 10:54:42;;;;;;;3.67;3.30;;;17.00;99.90;;;;;;5013418;28;21056;-77
2023/04/23 10:57:09;;;;;;;3.40;2.90;;;17.10;99.90;;;;;;5012816;28;20458;-77
2023/04/23 10:59:38;;;;;;;2.97;2.67;;;17.10;99.90;;;;;;5014107;28;20440;-77
2023/04/23 11:02:11;;;;;;;4.20;2.83;;;17.20;99.90;;;;;;5017936;28;20806;-77
2023/04/23 11:04:57;;;;;;;4.93;3.10;;;17.30;99.90;;;;;;5014847;28;20438;-76
2023/04/23 11:07:31;;;;;;;4.47;2.67;;;17.40;99.90;;;;;;5004820;28;20835;-77
2023/04/23 11:10:20;;;;;;;5.43;4.50;;;17.40;99.90;;;;;;5010353;28;20422;-76
2023/04/23 11:12:46;;;;;;;3.40;3.10;;;17.40;99.90;;;;;;5013993;28;20911;-76
2023/04/23 11:15:18;;;;;;;2.83;2.20;;;17.30;99.90;;;;;;5014946;28;20414;-76
2023/04/23 11:17:43;;;;;;;3.47;3.17;;;17.20;99.90;;;;;;5010390;28;20710;-77
2023/04/23 11:20:12;;;;;;;7.00;2.83;;;17.10;99.90;;;;;;5007023;28;20430;-76
2023/04/23 11:22:50;;;;;;;5.60;2.77;;;17.10;99.90;;;;;;5017401;28;20195;-76
2023/04/23 11:25:26;;;;;;;2.80;2.57;;;17.00;99.90;;;;;;5015985;28;20787;-77
2023/04/23 11:27:54;;;;;;;3.27;2.87;;;17.00;99.90;;;;;;5008315;28;20417;-76
2023/04/23 11:30:22;;;;;;;2.60;2.40;;;17.00;99.90;;;;;;5014569;28;20417;-78
2023/04/23 11:32:50;;;;;;;3.23;2.30;;;17.00;99.90;;;;;;5016742;28;20442;-79
2023/04/23 11:35:18;;;;;;;3.10;2.50;;;17.00;99.90;;;;;;5019651;28;20919;-79
2023/04/23 11:37:45;;;;;;;2.83;2.50;;;16.90;99.90;;;;;;5016636;28;20472;-76
2023/04/23 11:40:14;;;;;;;4.73;2.83;;;17.00;99.90;;;;;;5011764;28;20426;-79
2023/04/23 11:42:46;;;;;;;3.70;2.60;;;17.00;99.90;;;;;;5017122;28;20422;-79
2023/04/23 11:45:14;;;;;;;3.50;2.37;;;17.10;99.90;;;;;;5020188;28;20508;-78
2023/04/23 11:47:40;;;;;;;3.30;2.60;;;17.20;99.90;;;;;;5016282;28;20512;-78
2023/04/23 11:50:07;;;;;;;3.57;2.20;;;17.40;99.90;;;;;;5018860;28;20421;-76
2023/04/23 11:52:33;;;;;;;3.60;2.17;;;17.50;99.90;;;;;;5015990;28;20521;-79
2023/04/23 11:55:06;;;;;;;2.80;2.30;;;17.60;99.90;;;;;;5019864;28;20486;-79
2023/04/23 11:57:36;;;;;;;2.77;2.17;;;17.70;99.90;;;;;;5018706;28;20418;-79
2023/04/23 12:00:15;;;;;;;2.43;2.23;;;17.70;99.90;;;;;;5023165;28;20786;-79
2023/04/23 12:02:57;;;;;;;2.10;1.90;;;17.70;99.90;;;;;;5019279;28;20428;-76
2023/04/23 12:05:26;;;;;;;2.57;2.10;;;17.60;99.90;;;;;;5010468;28;20444;-76
2023/04/23 12:07:53;;;;;;;1.53;1.43;;;17.50;99.90;;;;;;5019730;28;20745;-79
2023/04/23 12:10:21;;;;;;;3.23;1.83;;;17.50;99.90;;;;;;5019408;28;20425;-75
2023/04/23 12:12:53;;;;;;;3.37;2.10;;;17.40;99.90;;;;;;5022036;28;20422;-79
2023/04/23 12:15:19;;;;;;;1.60;1.47;;;17.50;99.90;;;;;;5020408;28;20520;-79
2023/04/23 12:17:50;;;;;;;1.87;1.77;;;17.50;99.90;;;;;;5021549;28;20838;-78
2023/04/23 12:20:20;;;;;;;2.27;2.07;;;17.50;99.90;;;;;;5017259;28;20557;-79
2023/04/23 12:22:46;;;;;;;2.63;2.43;;;17.60;99.90;;;;;;5018540;28;20425;-78
2023/04/23 12:25:12;;;;;;;3.07;2.00;;;17.60;99.90;;;;;;5018109;28;20433;-79
2023/04/23 12:27:39;;;;;;;2.33;2.13;;;17.70;99.90;;;;;;5024933;28;20825;-78
2023/04/23 12:30:06;;;;;;;2.30;1.90;;;17.70;99.90;;;;;;5018347;28;20193;-76
2023/04/23 12:32:33;;;;;;;4.23;1.90;;;17.80;99.90;;;;;;5018680;28;20429;-78
2023/04/23 12:34:59;;;;;;;1.73;1.30;;;17.90;99.90;;;;;;5019844;28;20420;-79